sensor_id;sensor_type;location;lat;lon;timestamp;P1;durP1;ratioP1;P2;durP2;ratioP2
7211;SDS011;3647;48.792;9.802;2024-01-30T06:17:31;10.53;;;8.00;;
7211;SDS011;3647;48.792;9.802;2024-01-30T06:19:58;13.87;;;8.70;;
7211;SDS011;3647;48.792;9.802;2024-01-30T06:22:25;10.10;;;7.57;;
7211;SDS011;3647;48.792;9.802;2024-01-30T06:24:52;9.83;;;8.30;;
7211;SDS011;3647;48.792;9.802;2024-01-30T06:27:20;12.17;;;7.33;;
7211;SDS011;3647;48.792;9.802;2024-01-30T06:29:46;10.97;;;8.00;;
7211;SDS011;3647;48.792;9.802;2024-01-30T06:32:13;11.53;;;8.53;;
7211;SDS011;3647;48.792;9.802;2024-01-30T06:34:41;9.43;;;7.50;;
7211;SDS011;3647;48.792;9.802;2024-01-30T06:37:09;9.17;;;7.87;;
7211;SDS011;3647;48.792;9.802;2024-01-30T06:39:36;10.83;;;8.17;;
7211;SDS011;3647;48.792;9.802;2024-01-30T06:42:03;9.73;;;7.60;;
7211;SDS011;3647;48.792;9.802;2024-01-30T06:44:30;8.40;;;6.87;;
7211;SDS011;3647;48.792;9.802;2024-01-30T06:46:56;11.83;;;7.47;;
7211;SDS011;3647;48.792;9.802;2024-01-30T06:49:23;12.33;;;8.50;;
7211;SDS011;3647;48.792;9.802;2024-01-30T06:51:51;14.27;;;9.10;;
7211;SDS011;3647;48.792;9.802;2024-01-30T06:54:18;13.47;;;9.67;;
7211;SDS011;3647;48.792;9.802;2024-01-30T06:56:45;12.17;;;9.27;;
7211;SDS011;3647;48.792;9.802;2024-01-30T06:59:12;16.03;;;9.47;;
7211;SDS011;3647;48.792;9.802;2024-01-30T07:01:38;10.57;;;9.00;;
7211;SDS011;3647;48.792;9.802;2024-01-30T07:04:05;15.43;;;8.47;;
7211;SDS011;3647;48.792;9.802;2024-01-30T07:06:32;15.93;;;8.90;;
7211;SDS011;3647;48.792;9.802;2024-01-30T07:09:00;12.27;;;8.10;;
7211;SDS011;3647;48.792;9.802;2024-01-30T07:11:28;12.57;;;8.87;;
7211;SDS011;3647;48.792;9.802;2024-01-30T07:13:55;10.73;;;8.37;;
7211;SDS011;3647;48.792;9.802;2024-01-30T07:16:22;12.97;;;7.77;;
7211;SDS011;3647;48.792;9.802;2024-01-30T07:47:19;13.13;;;8.23;;
7211;SDS011;3647;48.792;9.802;2024-01-30T07:49:46;12.03;;;8.70;;
7211;SDS011;3647;48.792;9.802;2024-01-30T07:52:13;18.37;;;8.43;;
7211;SDS011;3647;48.792;9.802;2024-01-30T07:54:49;9.70;;;8.67;;
7211;SDS011;3647;48.792;9.802;2024-01-30T07:57:15;14.37;;;8.63;;
7211;SDS011;3647;48.792;9.802;2024-01-30T07:59:43;11.80;;;8.90;;
7211;SDS011;3647;48.792;9.802;2024-01-30T08:02:10;11.47;;;7.70;;
7211;SDS011;3647;48.792;9.802;2024-01-30T08:04:39;11.73;;;9.20;;
7211;SDS011;3647;48.792;9.802;2024-01-30T08:07:06;13.13;;;8.97;;
7211;SDS011;3647;48.792;9.802;2024-01-30T08:09:33;11.97;;;8.77;;
7211;SDS011;3647;48.792;9.802;2024-01-30T08:11:59;13.80;;;8.63;;
7211;SDS011;3647;48.792;9.802;2024-01-30T08:14:26;11.83;;;8.33;;
7211;SDS011;3647;48.792;9.802;2024-01-30T08:16:53;12.07;;;8.60;;
7211;SDS011;3647;48.792;9.802;2024-01-30T08:19:20;12.20;;;9.17;;
7211;SDS011;3647;48.792;9.802;2024-01-30T08:21:48;12.63;;;7.97;;
7211;SDS011;3647;48.792;9.802;2024-01-30T08:24:15;13.50;;;10.03;;
7211;SDS011;3647;48.792;9.802;2024-01-30T08:26:42;12.57;;;9.70;;
7211;SDS011;3647;48.792;9.802;2024-01-30T08:29:09;10.70;;;7.83;;
7211;SDS011;3647;48.792;9.802;2024-01-30T08:31:35;13.93;;;9.13;;
7211;SDS011;3647;48.792;9.802;2024-01-30T08:34:02;11.27;;;9.20;;
7211;SDS011;3647;48.792;9.802;2024-01-30T08:36:29;10.30;;;9.03;;
7211;SDS011;3647;48.792;9.802;2024-01-30T08:38:57;12.87;;;9.03;;
7211;SDS011;3647;48.792;9.802;2024-01-30T08:41:24;19.27;;;9.17;;
7211;SDS011;3647;48.792;9.802;2024-01-30T08:43:51;10.40;;;8.77;;
7211;SDS011;3647;48.792;9.802;2024-01-30T08:46:18;11.87;;;9.03;;
7211;SDS011;3647;48.792;9.802;2024-01-30T08:48:45;11.67;;;9.20;;
7211;SDS011;3647;48.792;9.802;2024-01-30T08:51:12;12.93;;;9.07;;
7211;SDS011;3647;48.792;9.802;2024-01-30T08:53:40;12.77;;;9.43;;
7211;SDS011;3647;48.792;9.802;2024-01-30T08:56:08;12.80;;;9.87;;
7211;SDS011;3647;48.792;9.802;2024-01-30T08:58:35;13.90;;;9.40;;
7211;SDS011;3647;48.792;9.802;2024-01-30T09:01:02;12.93;;;10.37;;
7211;SDS011;3647;48.792;9.802;2024-01-30T09:03:30;10.50;;;8.90;;
7211;SDS011;3647;48.792;9.802;2024-01-30T09:05:57;12.13;;;9.47;;
7211;SDS011;3647;48.792;9.802;2024-01-30T09:08:24;13.57;;;9.43;;
7211;SDS011;3647;48.792;9.802;2024-01-30T09:10:50;13.10;;;9.97;;
7211;SDS011;3647;48.792;9.802;2024-01-30T09:13:19;13.33;;;10.07;;
7211;SDS011;3647;48.792;9.802;2024-01-30T09:15:45;14.40;;;9.30;;
7211;SDS011;3647;48.792;9.802;2024-01-30T09:18:12;11.57;;;9.70;;
7211;SDS011;3647;48.792;9.802;2024-01-30T09:20:39;12.97;;;10.33;;
7211;SDS011;3647;48.792;9.802;2024-01-30T09:23:06;15.77;;;9.73;;
7211;SDS011;3647;48.792;9.802;2024-01-30T09:25:32;15.43;;;10.67;;
7211;SDS011;3647;48.792;9.802;2024-01-30T09:28:00;13.27;;;10.07;;
7211;SDS011;3647;48.792;9.802;2024-01-30T09:30:28;16.03;;;9.77;;
7211;SDS011;3647;48.792;9.802;2024-01-30T09:32:55;16.07;;;9.67;;
7211;SDS011;3647;48.792;9.802;2024-01-30T09:35:22;12.10;;;9.80;;
7211;SDS011;3647;48.792;9.802;2024-01-30T09:37:49;12.47;;;9.23;;
7211;SDS011;3647;48.792;9.802;2024-01-30T09:40:16;13.03;;;9.40;;
7211;SDS011;3647;48.792;9.802;2024-01-30T09:42:44;12.80;;;9.23;;
7211;SDS011;3647;48.792;9.802;2024-01-30T09:45:15;14.37;;;9.67;;
7211;SDS011;3647;48.792;9.802;2024-01-30T09:47:45;16.63;;;11.00;;
7211;SDS011;3647;48.792;9.802;2024-01-30T09:50:12;12.07;;;10.70;;
7211;SDS011;3647;48.792;9.802;2024-01-30T09:52:40;12.17;;;9.77;;
7211;SDS011;3647;48.792;9.802;2024-01-30T09:55:07;14.03;;;9.60;;
7211;SDS011;3647;48.792;9.802;2024-01-30T09:57:35;13.07;;;10.50;;
7211;SDS011;3647;48.792;9.802;2024-01-30T10:00:02;16.10;;;11.13;;
7211;SDS011;3647;48.792;9.802;2024-01-30T10:02:30;15.37;;;11.87;;
7211;SDS011;3647;48.792;9.802;2024-01-30T10:04:59;17.43;;;12.63;;
7211;SDS011;3647;48.792;9.802;2024-01-30T10:07:27;18.80;;;13.17;;
7211;SDS011;3647;48.792;9.802;2024-01-30T10:09:55;16.80;;;12.33;;
7211;SDS011;3647;48.792;9.802;2024-01-30T10:12:22;18.70;;;12.63;;
7211;SDS011;3647;48.792;9.802;2024-01-30T10:14:49;14.37;;;11.50;;
7211;SDS011;3647;48.792;9.802;2024-01-30T10:17:16;15.97;;;11.57;;
7211;SDS011;3647;48.792;9.802;2024-01-30T10:19:43;15.70;;;11.83;;
7211;SDS011;3647;48.792;9.802;2024-01-30T10:22:11;17.80;;;11.43;;
7211;SDS011;3647;48.792;9.802;2024-01-30T10:24:38;14.53;;;10.50;;
7211;SDS011;3647;48.792;9.802;2024-01-30T10:27:05;14.60;;;11.00;;
7211;SDS011;3647;48.792;9.802;2024-01-30T10:29:32;19.27;;;12.23;;
7211;SDS011;3647;48.792;9.802;2024-01-30T10:31:59;18.20;;;11.90;;
7211;SDS011;3647;48.792;9.802;2024-01-30T10:34:26;12.60;;;10.53;;
7211;SDS011;3647;48.792;9.802;2024-01-30T10:36:57;17.13;;;10.97;;
7211;SDS011;3647;48.792;9.802;2024-01-30T10:39:29;13.77;;;10.87;;
7211;SDS011;3647;48.792;9.802;2024-01-30T10:41:59;14.67;;;11.00;;
7211;SDS011;3647;48.792;9.802;2024-01-30T10:44:33;16.43;;;10.83;;
7211;SDS011;3647;48.792;9.802;2024-01-30T10:47:06;15.80;;;11.17;;
7211;SDS011;3647;48.792;9.802;2024-01-30T10:49:34;17.90;;;11.23;;
7211;SDS011;3647;48.792;9.802;2024-01-30T10:52:01;15.63;;;11.87;;
7211;SDS011;3647;48.792;9.802;2024-01-30T10:54:32;11.43;;;9.60;;
7211;SDS011;3647;48.792;9.802;2024-01-30T10:57:01;15.23;;;11.43;;
7211;SDS011;3647;48.792;9.802;2024-01-30T10:59:29;12.30;;;9.90;;
7211;SDS011;3647;48.792;9.802;2024-01-30T11:01:57;19.23;;;12.03;;
7211;SDS011;3647;48.792;9.802;2024-01-30T11:04:24;18.17;;;10.93;;
7211;SDS011;3647;48.792;9.802;2024-01-30T11:06:51;16.53;;;11.63;;
7211;SDS011;3647;48.792;9.802;2024-01-30T11:09:19;21.30;;;12.93;;
7211;SDS011;3647;48.792;9.802;2024-01-30T11:11:51;16.30;;;10.77;;
7211;SDS011;3647;48.792;9.802;2024-01-30T11:14:24;14.10;;;10.23;;
7211;SDS011;3647;48.792;9.802;2024-01-30T11:16:52;13.73;;;9.90;;
7211;SDS011;3647;48.792;9.802;2024-01-30T11:19:22;14.17;;;10.10;;
7211;SDS011;3647;48.792;9.802;2024-01-30T11:21:50;19.47;;;11.80;;
7211;SDS011;3647;48.792;9.802;2024-01-30T11:24:19;18.10;;;12.23;;
7211;SDS011;3647;48.792;9.802;2024-01-30T11:26:47;18.90;;;11.50;;
7211;SDS011;3647;48.792;9.802;2024-01-30T11:29:16;18.60;;;11.43;;
7211;SDS011;3647;48.792;9.802;2024-01-30T11:31:53;12.63;;;9.90;;
7211;SDS011;3647;48.792;9.802;2024-01-30T11:34:21;16.77;;;10.17;;
7211;SDS011;3647;48.792;9.802;2024-01-30T11:36:51;15.10;;;9.37;;
7211;SDS011;3647;48.792;9.802;2024-01-30T11:39:24;16.00;;;9.40;;
7211;SDS011;3647;48.792;9.802;2024-01-30T11:41:51;13.37;;;8.93;;
7211;SDS011;3647;48.792;9.802;2024-01-30T11:44:20;12.77;;;8.47;;
7211;SDS011;3647;48.792;9.802;2024-01-30T11:46:47;12.77;;;8.37;;
7211;SDS011;3647;48.792;9.802;2024-01-30T11:49:14;15.60;;;9.40;;
7211;SDS011;3647;48.792;9.802;2024-01-30T11:51:42;14.50;;;8.60;;
7211;SDS011;3647;48.792;9.802;2024-01-30T11:54:14;15.73;;;8.20;;
7211;SDS011;3647;48.792;9.802;2024-01-30T11:56:42;11.83;;;8.43;;
7211;SDS011;3647;48.792;9.802;2024-01-30T11:59:09;14.73;;;8.57;;
7211;SDS011;3647;48.792;9.802;2024-01-30T12:01:37;11.57;;;8.07;;
7211;SDS011;3647;48.792;9.802;2024-01-30T12:04:04;17.07;;;8.63;;
7211;SDS011;3647;48.792;9.802;2024-01-30T12:06:34;13.27;;;8.73;;
7211;SDS011;3647;48.792;9.802;2024-01-30T12:09:01;13.27;;;7.97;;
7211;SDS011;3647;48.792;9.802;2024-01-30T12:11:30;9.93;;;7.40;;
7211;SDS011;3647;48.792;9.802;2024-01-30T12:13:57;14.03;;;9.63;;
7211;SDS011;3647;48.792;9.802;2024-01-30T12:16:25;13.47;;;9.60;;
7211;SDS011;3647;48.792;9.802;2024-01-30T12:19:00;16.97;;;10.93;;
7211;SDS011;3647;48.792;9.802;2024-01-30T12:21:27;15.13;;;10.17;;
7211;SDS011;3647;48.792;9.802;2024-01-30T12:23:55;14.27;;;10.13;;
7211;SDS011;3647;48.792;9.802;2024-01-30T12:26:23;12.83;;;9.90;;
7211;SDS011;3647;48.792;9.802;2024-01-30T12:28:53;15.20;;;10.40;;
7211;SDS011;3647;48.792;9.802;2024-01-30T12:31:25;16.23;;;9.97;;
7211;SDS011;3647;48.792;9.802;2024-01-30T12:33:52;18.53;;;10.40;;
7211;SDS011;3647;48.792;9.802;2024-01-30T12:36:21;17.60;;;10.40;;
7211;SDS011;3647;48.792;9.802;2024-01-30T12:38:49;16.87;;;10.80;;
7211;SDS011;3647;48.792;9.802;2024-01-30T12:41:16;17.53;;;9.30;;
7211;SDS011;3647;48.792;9.802;2024-01-30T12:43:43;14.73;;;8.50;;
7211;SDS011;3647;48.792;9.802;2024-01-30T12:46:10;11.53;;;7.23;;
7211;SDS011;3647;48.792;9.802;2024-01-30T12:48:37;13.47;;;8.87;;
7211;SDS011;3647;48.792;9.802;2024-01-30T12:51:04;10.47;;;6.67;;
7211;SDS011;3647;48.792;9.802;2024-01-30T12:53:32;9.93;;;6.47;;
7211;SDS011;3647;48.792;9.802;2024-01-30T12:55:59;8.50;;;5.43;;
7211;SDS011;3647;48.792;9.802;2024-01-30T12:58:26;11.13;;;5.93;;
7211;SDS011;3647;48.792;9.802;2024-01-30T13:00:53;6.07;;;4.03;;
7211;SDS011;3647;48.792;9.802;2024-01-30T13:03:20;5.77;;;3.90;;
7211;SDS011;3647;48.792;9.802;2024-01-30T13:05:48;5.47;;;3.43;;
7211;SDS011;3647;48.792;9.802;2024-01-30T13:08:15;3.97;;;3.27;;
7211;SDS011;3647;48.792;9.802;2024-01-30T13:10:43;4.63;;;3.33;;
7211;SDS011;3647;48.792;9.802;2024-01-30T13:13:10;6.33;;;3.30;;
7211;SDS011;3647;48.792;9.802;2024-01-30T13:15:37;6.17;;;3.60;;
7211;SDS011;3647;48.792;9.802;2024-01-30T13:18:04;5.00;;;3.73;;
7211;SDS011;3647;48.792;9.802;2024-01-30T13:20:32;6.43;;;3.30;;
7211;SDS011;3647;48.792;9.802;2024-01-30T13:22:59;4.03;;;3.50;;
7211;SDS011;3647;48.792;9.802;2024-01-30T13:25:25;4.30;;;3.63;;
7211;SDS011;3647;48.792;9.802;2024-01-30T13:27:53;6.33;;;3.47;;
7211;SDS011;3647;48.792;9.802;2024-01-30T13:30:21;3.40;;;3.10;;
7211;SDS011;3647;48.792;9.802;2024-01-30T13:32:47;3.50;;;3.20;;
7211;SDS011;3647;48.792;9.802;2024-01-30T13:35:14;5.10;;;4.13;;
7211;SDS011;3647;48.792;9.802;2024-01-30T13:37:41;4.70;;;3.27;;
7211;SDS011;3647;48.792;9.802;2024-01-30T13:40:08;4.87;;;4.03;;
7211;SDS011;3647;48.792;9.802;2024-01-30T13:42:36;7.67;;;3.37;;
7211;SDS011;3647;48.792;9.802;2024-01-30T13:45:04;4.40;;;3.10;;
7211;SDS011;3647;48.792;9.802;2024-01-30T13:47:33;4.67;;;3.17;;
7211;SDS011;3647;48.792;9.802;2024-01-30T13:49:59;4.10;;;2.80;;
7211;SDS011;3647;48.792;9.802;2024-01-30T13:52:28;4.83;;;3.07;;
7211;SDS011;3647;48.792;9.802;2024-01-30T13:54:54;5.90;;;3.90;;
7211;SDS011;3647;48.792;9.802;2024-01-30T13:57:21;8.20;;;5.00;;
7211;SDS011;3647;48.792;9.802;2024-01-30T13:59:48;9.10;;;4.40;;
7211;SDS011;3647;48.792;9.802;2024-01-30T14:02:17;5.40;;;3.73;;
7211;SDS011;3647;48.792;9.802;2024-01-30T14:04:44;6.37;;;4.00;;
7211;SDS011;3647;48.792;9.802;2024-01-30T14:07:10;6.53;;;3.63;;
7211;SDS011;3647;48.792;9.802;2024-01-30T14:09:37;4.03;;;3.50;;
7211;SDS011;3647;48.792;9.802;2024-01-30T14:12:04;5.70;;;3.87;;
7211;SDS011;3647;48.792;9.802;2024-01-30T14:14:31;4.50;;;3.43;;
7211;SDS011;3647;48.792;9.802;2024-01-30T14:16:58;5.23;;;3.07;;
7211;SDS011;3647;48.792;9.802;2024-01-30T14:19:26;4.03;;;2.70;;
7211;SDS011;3647;48.792;9.802;2024-01-30T14:21:53;3.20;;;2.83;;
7211;SDS011;3647;48.792;9.802;2024-01-30T14:24:20;3.40;;;3.00;;
7211;SDS011;3647;48.792;9.802;2024-01-30T14:26:47;3.57;;;3.17;;
7211;SDS011;3647;48.792;9.802;2024-01-30T14:29:14;4.30;;;3.03;;
7211;SDS011;3647;48.792;9.802;2024-01-30T14:31:40;3.20;;;2.33;;
7211;SDS011;3647;48.792;9.802;2024-01-30T14:34:07;5.40;;;3.00;;
7211;SDS011;3647;48.792;9.802;2024-01-30T14:36:37;2.83;;;2.63;;
7211;SDS011;3647;48.792;9.802;2024-01-30T14:39:04;4.17;;;2.90;;
7211;SDS011;3647;48.792;9.802;2024-01-30T14:41:31;3.87;;;2.93;;
7211;SDS011;3647;48.792;9.802;2024-01-30T14:43:58;3.63;;;2.87;;
7211;SDS011;3647;48.792;9.802;2024-01-30T14:46:25;4.17;;;3.20;;
7211;SDS011;3647;48.792;9.802;2024-01-30T14:48:52;5.60;;;3.40;;
7211;SDS011;3647;48.792;9.802;2024-01-30T14:51:19;4.30;;;3.30;;
7211;SDS011;3647;48.792;9.802;2024-01-30T14:53:47;3.50;;;3.20;;
7211;SDS011;3647;48.792;9.802;2024-01-30T14:56:14;4.03;;;3.07;;
7211;SDS011;3647;48.792;9.802;2024-01-30T14:58:41;4.40;;;4.00;;
7211;SDS011;3647;48.792;9.802;2024-01-30T15:01:08;3.77;;;3.20;;
7211;SDS011;3647;48.792;9.802;2024-01-30T15:03:35;5.43;;;3.07;;
7211;SDS011;3647;48.792;9.802;2024-01-30T15:06:02;5.37;;;3.40;;
7211;SDS011;3647;48.792;9.802;2024-01-30T15:08:30;4.10;;;3.00;;
7211;SDS011;3647;48.792;9.802;2024-01-30T15:10:59;2.97;;;2.73;;
7211;SDS011;3647;48.792;9.802;2024-01-30T15:13:29;4.37;;;3.07;;
7211;SDS011;3647;48.792;9.802;2024-01-30T15:15:56;3.97;;;3.57;;
7211;SDS011;3647;48.792;9.802;2024-01-30T15:18:23;3.33;;;3.03;;
7211;SDS011;3647;48.792;9.802;2024-01-30T15:20:50;3.70;;;3.10;;
7211;SDS011;3647;48.792;9.802;2024-01-30T15:23:16;4.50;;;3.60;;
7211;SDS011;3647;48.792;9.802;2024-01-30T15:25:43;9.43;;;6.93;;
7211;SDS011;3647;48.792;9.802;2024-01-30T15:28:11;9.00;;;6.13;;
7211;SDS011;3647;48.792;9.802;2024-01-30T15:30:39;6.07;;;3.67;;
7211;SDS011;3647;48.792;9.802;2024-01-30T15:33:08;7.27;;;3.50;;
7211;SDS011;3647;48.792;9.802;2024-01-30T15:35:35;6.47;;;4.70;;
7211;SDS011;3647;48.792;9.802;2024-01-30T15:38:03;7.23;;;4.90;;
7211;SDS011;3647;48.792;9.802;2024-01-30T15:40:33;6.93;;;4.97;;
7211;SDS011;3647;48.792;9.802;2024-01-30T15:43:00;6.83;;;4.77;;
7211;SDS011;3647;48.792;9.802;2024-01-30T15:45:28;6.07;;;4.27;;
7211;SDS011;3647;48.792;9.802;2024-01-30T15:47:55;22.60;;;8.07;;
7211;SDS011;3647;48.792;9.802;2024-01-30T15:50:23;9.87;;;6.33;;
7211;SDS011;3647;48.792;9.802;2024-01-30T15:52:50;6.00;;;4.37;;
7211;SDS011;3647;48.792;9.802;2024-01-30T15:55:16;5.57;;;4.23;;
7211;SDS011;3647;48.792;9.802;2024-01-30T15:57:45;7.20;;;4.50;;
7211;SDS011;3647;48.792;9.802;2024-01-30T16:00:12;5.03;;;4.33;;
7211;SDS011;3647;48.792;9.802;2024-01-30T16:02:41;4.27;;;3.17;;
7211;SDS011;3647;48.792;9.802;2024-01-30T16:05:08;5.33;;;3.50;;
7211;SDS011;3647;48.792;9.802;2024-01-30T16:07:35;6.27;;;3.67;;
7211;SDS011;3647;48.792;9.802;2024-01-30T16:10:02;6.23;;;4.33;;
7211;SDS011;3647;48.792;9.802;2024-01-30T16:12:29;6.30;;;4.37;;
7211;SDS011;3647;48.792;9.802;2024-01-30T16:14:56;7.83;;;4.40;;
7211;SDS011;3647;48.792;9.802;2024-01-30T16:17:23;6.50;;;3.97;;
7211;SDS011;3647;48.792;9.802;2024-01-30T16:19:51;5.20;;;4.53;;
7211;SDS011;3647;48.792;9.802;2024-01-30T16:22:18;5.30;;;3.93;;
7211;SDS011;3647;48.792;9.802;2024-01-30T16:24:45;9.90;;;4.97;;
7211;SDS011;3647;48.792;9.802;2024-01-30T16:27:12;8.73;;;4.30;;
7211;SDS011;3647;48.792;9.802;2024-01-30T16:29:39;5.77;;;4.83;;
7211;SDS011;3647;48.792;9.802;2024-01-30T16:32:06;7.20;;;4.87;;
7211;SDS011;3647;48.792;9.802;2024-01-30T16:34:33;6.93;;;4.77;;
7211;SDS011;3647;48.792;9.802;2024-01-30T16:37:01;12.63;;;8.43;;
7211;SDS011;3647;48.792;9.802;2024-01-30T16:39:28;11.80;;;7.63;;
7211;SDS011;3647;48.792;9.802;2024-01-30T16:41:54;8.97;;;6.00;;
7211;SDS011;3647;48.792;9.802;2024-01-30T16:44:21;7.40;;;5.10;;
7211;SDS011;3647;48.792;9.802;2024-01-30T16:46:48;10.03;;;5.17;;
7211;SDS011;3647;48.792;9.802;2024-01-30T16:49:15;7.63;;;5.33;;
7211;SDS011;3647;48.792;9.802;2024-01-30T16:51:42;7.50;;;5.40;;
7211;SDS011;3647;48.792;9.802;2024-01-30T16:54:10;15.93;;;9.57;;
7211;SDS011;3647;48.792;9.802;2024-01-30T16:56:37;11.50;;;7.53;;
7211;SDS011;3647;48.792;9.802;2024-01-30T16:59:04;12.83;;;9.23;;
7211;SDS011;3647;48.792;9.802;2024-01-30T17:01:31;15.27;;;9.50;;
7211;SDS011;3647;48.792;9.802;2024-01-30T17:03:58;14.27;;;9.43;;
7211;SDS011;3647;48.792;9.802;2024-01-30T17:06:25;10.83;;;8.07;;
7211;SDS011;3647;48.792;9.802;2024-01-30T17:08:51;12.70;;;8.67;;
7211;SDS011;3647;48.792;9.802;2024-01-30T17:11:19;12.70;;;8.00;;
7211;SDS011;3647;48.792;9.802;2024-01-30T17:13:46;9.57;;;6.93;;
7211;SDS011;3647;48.792;9.802;2024-01-30T17:16:13;8.47;;;6.73;;
7211;SDS011;3647;48.792;9.802;2024-01-30T17:18:40;8.63;;;6.33;;
7211;SDS011;3647;48.792;9.802;2024-01-30T17:21:07;8.43;;;6.33;;
7211;SDS011;3647;48.792;9.802;2024-01-30T17:23:34;11.17;;;8.17;;
7211;SDS011;3647;48.792;9.802;2024-01-30T17:26:02;13.57;;;8.30;;
7211;SDS011;3647;48.792;9.802;2024-01-30T17:28:30;11.57;;;8.70;;
7211;SDS011;3647;48.792;9.802;2024-01-30T17:30:57;12.13;;;8.80;;
7211;SDS011;3647;48.792;9.802;2024-01-30T17:33:24;11.50;;;7.27;;
7211;SDS011;3647;48.792;9.802;2024-01-30T17:35:51;10.13;;;7.10;;
7211;SDS011;3647;48.792;9.802;2024-01-30T17:38:17;8.10;;;5.97;;
7211;SDS011;3647;48.792;9.802;2024-01-30T17:40:44;13.83;;;7.53;;
7211;SDS011;3647;48.792;9.802;2024-01-30T17:43:11;10.90;;;7.77;;
7211;SDS011;3647;48.792;9.802;2024-01-30T17:45:40;10.47;;;6.67;;
7211;SDS011;3647;48.792;9.802;2024-01-30T17:48:07;8.33;;;6.53;;
7211;SDS011;3647;48.792;9.802;2024-01-30T17:50:34;9.50;;;6.87;;
7211;SDS011;3647;48.792;9.802;2024-01-30T17:53:00;9.93;;;6.73;;
7211;SDS011;3647;48.792;9.802;2024-01-30T17:55:27;12.17;;;7.20;;
7211;SDS011;3647;48.792;9.802;2024-01-30T17:57:54;11.70;;;8.60;;
7211;SDS011;3647;48.792;9.802;2024-01-30T18:00:21;11.30;;;8.87;;
7211;SDS011;3647;48.792;9.802;2024-01-30T18:02:49;11.37;;;7.90;;
7211;SDS011;3647;48.792;9.802;2024-01-30T18:05:17;11.27;;;8.50;;
7211;SDS011;3647;48.792;9.802;2024-01-30T18:07:44;9.90;;;6.70;;
7211;SDS011;3647;48.792;9.802;2024-01-30T18:10:11;14.53;;;8.43;;
7211;SDS011;3647;48.792;9.802;2024-01-30T18:12:43;12.57;;;7.57;;
7211;SDS011;3647;48.792;9.802;2024-01-30T18:15:10;9.83;;;7.60;;
7211;SDS011;3647;48.792;9.802;2024-01-30T18:17:37;13.23;;;8.57;;
7211;SDS011;3647;48.792;9.802;2024-01-30T18:20:06;14.20;;;8.73;;
7211;SDS011;3647;48.792;9.802;2024-01-30T18:22:33;11.27;;;7.20;;
7211;SDS011;3647;48.792;9.802;2024-01-30T18:25:00;8.97;;;6.67;;
7211;SDS011;3647;48.792;9.802;2024-01-30T18:27:28;13.27;;;7.57;;
7211;SDS011;3647;48.792;9.802;2024-01-30T18:29:54;9.83;;;8.33;;
7211;SDS011;3647;48.792;9.802;2024-01-30T18:32:21;13.10;;;8.00;;
7211;SDS011;3647;48.792;9.802;2024-01-30T18:34:48;10.10;;;7.83;;
7211;SDS011;3647;48.792;9.802;2024-01-30T18:37:16;10.60;;;7.87;;
7211;SDS011;3647;48.792;9.802;2024-01-30T18:39:43;12.77;;;8.23;;
7211;SDS011;3647;48.792;9.802;2024-01-30T18:42:10;16.77;;;8.73;;
7211;SDS011;3647;48.792;9.802;2024-01-30T18:44:37;13.63;;;8.30;;
7211;SDS011;3647;48.792;9.802;2024-01-30T18:47:04;16.00;;;9.97;;
7211;SDS011;3647;48.792;9.802;2024-01-30T18:49:31;31.67;;;18.50;;
7211;SDS011;3647;48.792;9.802;2024-01-30T18:51:57;36.20;;;19.27;;
7211;SDS011;3647;48.792;9.802;2024-01-30T18:54:26;54.83;;;23.17;;
7211;SDS011;3647;48.792;9.802;2024-01-30T18:56:52;30.07;;;15.10;;
7211;SDS011;3647;48.792;9.802;2024-01-30T18:59:19;17.77;;;11.50;;
7211;SDS011;3647;48.792;9.802;2024-01-30T19:01:46;26.13;;;15.67;;
7211;SDS011;3647;48.792;9.802;2024-01-30T19:04:13;18.93;;;11.47;;
7211;SDS011;3647;48.792;9.802;2024-01-30T19:06:40;11.87;;;8.37;;
7211;SDS011;3647;48.792;9.802;2024-01-30T19:09:06;12.73;;;9.67;;
7211;SDS011;3647;48.792;9.802;2024-01-30T19:11:35;16.73;;;11.73;;
7211;SDS011;3647;48.792;9.802;2024-01-30T19:14:01;16.57;;;9.23;;
7211;SDS011;3647;48.792;9.802;2024-01-30T19:16:28;12.20;;;9.03;;
7211;SDS011;3647;48.792;9.802;2024-01-30T19:18:55;15.53;;;11.40;;
7211;SDS011;3647;48.792;9.802;2024-01-30T19:21:22;26.50;;;16.27;;
7211;SDS011;3647;48.792;9.802;2024-01-30T19:23:49;19.00;;;13.00;;
7211;SDS011;3647;48.792;9.802;2024-01-30T19:26:18;19.53;;;12.83;;
7211;SDS011;3647;48.792;9.802;2024-01-30T19:28:46;16.87;;;10.37;;
7211;SDS011;3647;48.792;9.802;2024-01-30T19:31:14;13.03;;;9.40;;
7211;SDS011;3647;48.792;9.802;2024-01-30T19:33:41;13.87;;;9.00;;
7211;SDS011;3647;48.792;9.802;2024-01-30T19:36:08;22.97;;;14.53;;
7211;SDS011;3647;48.792;9.802;2024-01-30T19:38:35;20.07;;;12.93;;
7211;SDS011;3647;48.792;9.802;2024-01-30T19:41:02;14.47;;;10.47;;
7211;SDS011;3647;48.792;9.802;2024-01-30T19:43:30;20.83;;;13.80;;
7211;SDS011;3647;48.792;9.802;2024-01-30T19:45:58;15.83;;;11.77;;
7211;SDS011;3647;48.792;9.802;2024-01-30T19:48:25;13.40;;;9.43;;
7211;SDS011;3647;48.792;9.802;2024-01-30T19:50:52;12.83;;;9.70;;
7211;SDS011;3647;48.792;9.802;2024-01-30T19:53:19;16.37;;;10.83;;
7211;SDS011;3647;48.792;9.802;2024-01-30T19:55:47;21.50;;;12.60;;
7211;SDS011;3647;48.792;9.802;2024-01-30T19:58:14;21.33;;;11.97;;
7211;SDS011;3647;48.792;9.802;2024-01-30T20:00:41;16.17;;;10.17;;
7211;SDS011;3647;48.792;9.802;2024-01-30T20:03:09;19.50;;;10.90;;
7211;SDS011;3647;48.792;9.802;2024-01-30T20:05:36;14.47;;;9.43;;
7211;SDS011;3647;48.792;9.802;2024-01-30T20:08:03;16.97;;;9.93;;
7211;SDS011;3647;48.792;9.802;2024-01-30T20:10:30;15.60;;;10.50;;
7211;SDS011;3647;48.792;9.802;2024-01-30T20:12:57;18.03;;;11.40;;
7211;SDS011;3647;48.792;9.802;2024-01-30T20:15:24;18.77;;;11.63;;
7211;SDS011;3647;48.792;9.802;2024-01-30T20:17:51;16.47;;;10.70;;
7211;SDS011;3647;48.792;9.802;2024-01-30T20:20:19;15.50;;;10.07;;
7211;SDS011;3647;48.792;9.802;2024-01-30T20:22:46;15.03;;;9.47;;
7211;SDS011;3647;48.792;9.802;2024-01-30T20:25:13;15.13;;;9.93;;
7211;SDS011;3647;48.792;9.802;2024-01-30T20:27:40;17.57;;;10.93;;
7211;SDS011;3647;48.792;9.802;2024-01-30T20:30:08;13.33;;;9.70;;
7211;SDS011;3647;48.792;9.802;2024-01-30T20:32:37;16.37;;;9.83;;
7211;SDS011;3647;48.792;9.802;2024-01-30T20:35:04;16.40;;;11.20;;
7211;SDS011;3647;48.792;9.802;2024-01-30T20:37:35;15.67;;;11.03;;
7211;SDS011;3647;48.792;9.802;2024-01-30T20:40:03;20.77;;;10.97;;
7211;SDS011;3647;48.792;9.802;2024-01-30T20:42:31;16.73;;;10.97;;
7211;SDS011;3647;48.792;9.802;2024-01-30T20:44:57;17.70;;;9.83;;
7211;SDS011;3647;48.792;9.802;2024-01-30T20:47:24;17.90;;;9.77;;
7211;SDS011;3647;48.792;9.802;2024-01-30T20:49:52;21.97;;;11.43;;
7211;SDS011;3647;48.792;9.802;2024-01-30T20:52:21;21.33;;;10.37;;
7211;SDS011;3647;48.792;9.802;2024-01-30T20:54:49;16.20;;;10.27;;
7211;SDS011;3647;48.792;9.802;2024-01-30T20:57:16;18.57;;;11.23;;
7211;SDS011;3647;48.792;9.802;2024-01-30T20:59:43;16.53;;;11.47;;
7211;SDS011;3647;48.792;9.802;2024-01-30T21:02:10;14.83;;;10.33;;
7211;SDS011;3647;48.792;9.802;2024-01-30T21:04:37;21.40;;;12.17;;
7211;SDS011;3647;48.792;9.802;2024-01-30T21:07:04;19.63;;;12.30;;
7211;SDS011;3647;48.792;9.802;2024-01-30T21:09:31;20.97;;;12.03;;
7211;SDS011;3647;48.792;9.802;2024-01-30T21:12:00;17.97;;;11.07;;
7211;SDS011;3647;48.792;9.802;2024-01-30T21:14:27;15.73;;;10.80;;
7211;SDS011;3647;48.792;9.802;2024-01-30T21:16:54;19.80;;;11.83;;
7211;SDS011;3647;48.792;9.802;2024-01-30T21:19:21;17.30;;;11.67;;
7211;SDS011;3647;48.792;9.802;2024-01-30T21:21:48;18.27;;;11.10;;
7211;SDS011;3647;48.792;9.802;2024-01-30T21:24:15;17.70;;;11.90;;
7211;SDS011;3647;48.792;9.802;2024-01-30T21:26:41;12.90;;;8.90;;
7211;SDS011;3647;48.792;9.802;2024-01-30T21:29:10;12.63;;;9.57;;
7211;SDS011;3647;48.792;9.802;2024-01-30T21:31:37;14.60;;;10.53;;
7211;SDS011;3647;48.792;9.802;2024-01-30T21:34:04;13.17;;;9.73;;
7211;SDS011;3647;48.792;9.802;2024-01-30T21:36:30;16.33;;;10.33;;
7211;SDS011;3647;48.792;9.802;2024-01-30T21:38:57;13.33;;;9.57;;
7211;SDS011;3647;48.792;9.802;2024-01-30T21:41:24;13.77;;;9.57;;
7211;SDS011;3647;48.792;9.802;2024-01-30T21:43:51;14.73;;;9.73;;
7211;SDS011;3647;48.792;9.802;2024-01-30T21:46:26;14.60;;;9.53;;
7211;SDS011;3647;48.792;9.802;2024-01-30T21:48:54;15.33;;;10.10;;